Time;durP1;ratioP1;P1;durP2;ratioP2;P2;SDS_P1;SDS_P2;PMS_P1;PMS_P2;Temp;Humidity;BMP_temperature;BMP_pressure;BME280_temperature;BME280_humidity;BME280_pressure;Samples;Min_cycle;Max_cycle;Signal;HPM_P1;HPM_P2
2022/04/17 00:00:25;;;;;;;3.20;3.00;;;;;;;;;;5045911;28;20483;-76
2022/04/17 00:02:51;;;;;;;3.83;3.53;;;;;;;;;;5047146;28;20462;-78
2022/04/17 00:05:17;;;;;;;6.93;4.37;;;;;;;;;;5047810;28;20523;-77
2022/04/17 00:07:43;;;;;;;13.57;8.20;;;;;;;;;;5046506;28;20433;-76
2022/04/17 00:10:09;;;;;;;9.20;5.30;;;;;;;;;;5044769;28;20487;-76
2022/04/17 00:12:35;;;;;;;3.47;3.30;;;;;;;;;;5047596;28;20823;-76
2022/04/17 00:15:03;;;;;;;2.67;2.67;;;;;;;;;;5047702;28;20788;-77
2022/04/17 00:17:29;;;;;;;1.93;1.93;;;;;;;;;;5045777;28;20587;-77
2022/04/17 00:19:55;;;;;;;2.30;1.80;;;;;;;;;;5048602;28;20465;-77
2022/04/17 00:22:23;;;;;;;1.83;1.70;;;;;;;;;;5047676;28;20516;-77
2022/04/17 00:24:49;;;;;;;3.23;2.10;;;;;;;;;;5046513;28;20438;-77
2022/04/17 00:27:15;;;;;;;2.43;2.20;;;;;;;;;;5048384;28;20453;-77
2022/04/17 00:29:41;;;;;;;1.20;1.20;;;;;;;;;;5048972;28;21032;-77
2022/04/17 00:32:08;;;;;;;3.53;1.90;;;;;;;;;;5047072;28;20490;-75
2022/04/17 00:34:36;;;;;;;1.70;1.70;;;;;;;;;;5051749;28;20430;-75
2022/04/17 00:37:02;;;;;;;2.70;1.60;;;;;;;;;;5051088;28;20438;-76
2022/04/17 00:39:28;;;;;;;2.07;1.97;;;;;;;;;;5048935;28;20469;-76
2022/04/17 00:41:54;;;;;;;2.60;1.70;;;;;;;;;;5048736;28;20783;-77
2022/04/17 00:44:20;;;;;;;1.63;1.50;;;;;;;;;;5053420;28;20430;-77
2022/04/17 00:46:46;;;;;;;3.33;1.97;;;;;;;;;;5052685;28;20433;-78
2022/04/17 00:49:14;;;;;;;5.50;1.50;;;;;;;;;;5051720;28;20881;-77
2022/04/17 00:51:42;;;;;;;1.70;1.70;;;;;;;;;;5050413;28;20587;-76
2022/04/17 00:54:09;;;;;;;1.73;1.70;;;;;;;;;;5052589;28;20481;-76
2022/04/17 00:56:35;;;;;;;1.53;1.53;;;;;;;;;;5049890;28;20430;-77
2022/04/17 00:59:02;;;;;;;2.10;2.00;;;;;;;;;;5052260;28;20430;-76
2022/04/17 01:01:32;;;;;;;1.93;1.83;;;;;;;;;;5048310;28;20462;-75
2022/04/17 01:03:58;;;;;;;1.80;1.80;;;;;;;;;;5049476;28;21007;-76
2022/04/17 01:06:24;;;;;;;1.70;1.60;;;;;;;;;;5049455;28;20800;-77
2022/04/17 01:08:50;;;;;;;1.63;1.63;;;;;;;;;;5047771;28;20911;-78
2022/04/17 01:11:17;;;;;;;4.37;1.67;;;;;;;;;;5048848;28;20497;-77
2022/04/17 01:13:43;;;;;;;1.67;1.60;;;;;;;;;;5052006;28;20430;-76
2022/04/17 01:16:09;;;;;;;2.10;2.10;;;;;;;;;;5050006;28;20442;-77
2022/04/17 01:18:55;;;;;;;4.43;3.07;;;;;;;;;;5049680;28;20792;-76
2022/04/17 01:21:21;;;;;;;1.33;1.33;;;;;;;;;;5052307;28;20418;-76
2022/04/17 01:29:17;;;;;;;1.77;1.70;;;;;;;;;;5052148;28;20438;-77
2022/04/17 01:31:43;;;;;;;1.93;1.87;;;;;;;;;;5049397;28;20478;-76
2022/04/17 01:34:09;;;;;;;1.77;1.67;;;;;;;;;;5047887;28;20957;-76
2022/04/17 01:36:35;;;;;;;1.40;1.40;;;;;;;;;;5049351;28;20449;-77
2022/04/17 01:39:01;;;;;;;1.83;1.83;;;;;;;;;;5052339;28;20512;-77
2022/04/17 01:41:27;;;;;;;1.50;1.50;;;;;;;;;;5047088;28;20453;-76
2022/04/17 01:43:53;;;;;;;2.30;1.77;;;;;;;;;;5047663;28;20418;-76
2022/04/17 01:46:19;;;;;;;1.93;1.93;;;;;;;;;;5049305;28;20518;-75
2022/04/17 01:48:45;;;;;;;1.50;1.50;;;;;;;;;;5049125;28;20819;-76
2022/04/17 01:51:11;;;;;;;1.40;1.40;;;;;;;;;;5048803;28;20474;-76
2022/04/17 01:53:37;;;;;;;1.50;1.50;;;;;;;;;;5051029;28;20521;-76
2022/04/17 01:56:03;;;;;;;1.80;1.70;;;;;;;;;;5048998;28;20434;-76
2022/04/17 01:58:29;;;;;;;1.50;1.50;;;;;;;;;;5049893;28;20431;-76
2022/04/17 02:00:55;;;;;;;1.77;1.77;;;;;;;;;;5047701;28;21045;-76
2022/04/17 02:03:21;;;;;;;2.30;1.40;;;;;;;;;;5050065;28;20445;-76
2022/04/17 02:05:47;;;;;;;1.63;1.63;;;;;;;;;;5049608;28;20422;-76
2022/04/17 02:08:15;;;;;;;1.57;1.47;;;;;;;;;;5048937;28;20774;-75
2022/04/17 02:10:41;;;;;;;4.00;1.53;;;;;;;;;;5047984;28;21031;-76
2022/04/17 02:13:07;;;;;;;2.20;1.50;;;;;;;;;;5050310;28;20536;-76
2022/04/17 02:15:33;;;;;;;1.40;1.30;;;;;;;;;;5050189;28;20446;-77
2022/04/17 02:17:59;;;;;;;1.37;1.37;;;;;;;;;;5046712;28;20450;-76
2022/04/17 02:20:25;;;;;;;1.37;1.27;;;;;;;;;;5050083;28;20427;-76
2022/04/17 02:22:52;;;;;;;2.73;1.83;;;;;;;;;;5049355;28;20926;-78
2022/04/17 02:25:18;;;;;;;1.73;1.60;;;;;;;;;;5050385;28;20436;-77
2022/04/17 02:27:44;;;;;;;1.97;1.97;;;;;;;;;;5048544;28;20516;-77
2022/04/17 02:30:10;;;;;;;2.33;2.23;;;;;;;;;;5049165;28;21037;-78
2022/04/17 02:32:36;;;;;;;1.90;1.83;;;;;;;;;;5049575;28;20438;-77
2022/04/17 02:35:03;;;;;;;1.50;1.40;;;;;;;;;;5044881;28;20445;-76
2022/04/17 02:37:29;;;;;;;2.03;1.93;;;;;;;;;;5047856;28;20450;-77
2022/04/17 02:39:55;;;;;;;1.63;1.63;;;;;;;;;;5049746;28;20422;-77
2022/04/17 02:42:21;;;;;;;1.40;1.40;;;;;;;;;;5047337;28;20810;-77
2022/04/17 02:44:47;;;;;;;2.23;2.00;;;;;;;;;;5045146;28;20428;-76
2022/04/17 02:49:58;;;;;;;1.63;1.53;;;;;;;;;;5046868;28;20449;-77
2022/04/17 02:52:24;;;;;;;1.33;1.33;;;;;;;;;;5046906;28;20539;-76
2022/04/17 02:54:50;;;;;;;1.50;1.50;;;;;;;;;;5047967;28;20441;-77
2022/04/17 02:57:16;;;;;;;2.00;2.00;;;;;;;;;;5049253;28;20505;-76
2022/04/17 02:59:42;;;;;;;1.77;1.77;;;;;;;;;;5050338;28;20476;-77
2022/04/17 03:07:37;;;;;;;2.10;2.00;;;;;;;;;;5045603;28;20496;-77
2022/04/17 03:10:03;;;;;;;1.40;1.37;;;;;;;;;;5048052;28;20457;-77
2022/04/17 03:12:29;;;;;;;2.03;1.93;;;;;;;;;;5048933;28;20481;-77
2022/04/17 03:14:55;;;;;;;1.43;1.43;;;;;;;;;;5049493;28;21120;-77
2022/04/17 03:17:21;;;;;;;2.23;2.03;;;;;;;;;;5047724;28;20529;-77
2022/04/17 03:19:47;;;;;;;1.43;1.43;;;;;;;;;;5048242;28;20513;-77
2022/04/17 03:22:15;;;;;;;2.30;2.20;;;;;;;;;;5048643;28;20438;-77
2022/04/17 03:24:40;;;;;;;2.90;2.67;;;;;;;;;;5045678;28;20426;-77
2022/04/17 03:27:06;;;;;;;1.93;1.83;;;;;;;;;;5049795;28;20430;-77
2022/04/17 03:29:32;;;;;;;2.33;2.23;;;;;;;;;;5047216;28;20434;-77
2022/04/17 03:31:58;;;;;;;1.87;1.87;;;;;;;;;;5048483;28;20497;-77
2022/04/17 03:34:24;;;;;;;1.90;1.80;;;;;;;;;;5044509;28;20939;-76
2022/04/17 03:36:50;;;;;;;2.00;2.00;;;;;;;;;;5030558;28;20538;-77
2022/04/17 03:39:16;;;;;;;1.67;1.57;;;;;;;;;;5048551;28;20434;-77
2022/04/17 03:41:42;;;;;;;2.00;2.00;;;;;;;;;;5049965;28;20509;-76
2022/04/17 03:44:08;;;;;;;3.47;1.90;;;;;;;;;;5047125;28;20426;-76
2022/04/17 03:46:34;;;;;;;2.33;2.20;;;;;;;;;;5049454;28;20426;-76
2022/04/17 03:49:00;;;;;;;3.80;2.00;;;;;;;;;;5048620;28;20497;-76
2022/04/17 03:51:26;;;;;;;1.93;1.80;;;;;;;;;;5041440;28;20486;-76
2022/04/17 03:53:52;;;;;;;2.10;2.10;;;;;;;;;;5045730;28;20443;-76
2022/04/17 03:56:18;;;;;;;2.50;1.80;;;;;;;;;;5047463;28;20450;-77
2022/04/17 03:58:44;;;;;;;2.10;2.10;;;;;;;;;;5047512;28;20448;-76
2022/04/17 04:01:10;;;;;;;1.93;1.83;;;;;;;;;;5047984;28;20438;-77
2022/04/17 04:03:38;;;;;;;2.90;2.70;;;;;;;;;;5044898;28;20430;-76
2022/04/17 04:06:04;;;;;;;2.40;2.30;;;;;;;;;;5045204;28;20439;-77
2022/04/17 04:08:30;;;;;;;2.17;2.10;;;;;;;;;;5048471;28;20441;-76
2022/04/17 04:10:56;;;;;;;1.77;1.77;;;;;;;;;;5047166;28;20576;-76
2022/04/17 04:13:22;;;;;;;1.90;1.90;;;;;;;;;;5048974;28;21056;-76
2022/04/17 04:15:48;;;;;;;2.97;2.17;;;;;;;;;;5045360;28;20441;-76
2022/04/17 04:18:14;;;;;;;2.10;2.10;;;;;;;;;;5046260;28;20481;-76
2022/04/17 04:20:40;;;;;;;2.33;2.13;;;;;;;;;;5045741;28;20556;-77
2022/04/17 04:23:06;;;;;;;2.30;2.20;;;;;;;;;;5049290;28;20433;-77
2022/04/17 04:25:32;;;;;;;2.20;2.20;;;;;;;;;;5040601;28;20438;-76
2022/04/17 04:28:44;;;;;;;2.60;2.50;;;;;;;;;;5046620;28;20961;-76
2022/04/17 04:30:45;;;;;;;2.50;2.47;;;;;;;;;;5044876;28;20470;-76
2022/04/17 04:33:10;;;;;;;1.60;1.60;;;;;;;;;;5048278;28;20612;-76
2022/04/17 04:35:37;;;;;;;3.27;2.90;;;;;;;;;;5040552;28;20540;-76
2022/04/17 04:38:05;;;;;;;1.87;1.87;;;;;;;;;;5042203;28;20488;-77
2022/04/17 04:40:31;;;;;;;2.00;2.00;;;;;;;;;;5048950;28;20426;-76
2022/04/17 04:42:58;;;;;;;1.70;1.70;;;;;;;;;;5045982;28;20442;-75
2022/04/17 04:48:09;;;;;;;2.13;2.03;;;;;;;;;;5047724;28;20472;-77
2022/04/17 04:50:35;;;;;;;4.73;2.50;;;;;;;;;;5048760;28;20466;-76
2022/04/17 04:53:01;;;;;;;2.03;2.03;;;;;;;;;;5044723;28;20442;-77
2022/04/17 04:55:27;;;;;;;2.27;2.17;;;;;;;;;;5047723;28;20430;-77
2022/04/17 04:57:53;;;;;;;2.30;2.30;;;;;;;;;;5047845;28;20446;-77
2022/04/17 05:00:19;;;;;;;2.60;2.40;;;;;;;;;;5045809;28;20434;-77
2022/04/17 05:02:45;;;;;;;2.63;2.43;;;;;;;;;;5047542;28;20435;-77
2022/04/17 05:05:11;;;;;;;2.77;2.60;;;;;;;;;;5047561;28;20430;-76
2022/04/17 05:07:38;;;;;;;2.30;2.30;;;;;;;;;;5042805;28;20488;-77
2022/04/17 05:10:06;;;;;;;2.20;2.20;;;;;;;;;;5047342;28;20434;-77
2022/04/17 05:12:33;;;;;;;2.10;2.00;;;;;;;;;;5046973;28;20477;-77
2022/04/17 05:14:59;;;;;;;2.00;1.90;;;;;;;;;;5041831;28;20861;-77
2022/04/17 05:17:25;;;;;;;2.73;2.63;;;;;;;;;;5050255;28;20461;-76
2022/04/17 05:19:51;;;;;;;2.73;2.43;;;;;;;;;;5052227;28;20457;-76
2022/04/17 05:22:17;;;;;;;2.20;2.10;;;;;;;;;;5050985;28;20445;-77
2022/04/17 05:24:46;;;;;;;1.53;1.53;;;;;;;;;;5049909;28;20438;-76
2022/04/17 05:27:13;;;;;;;2.43;2.33;;;;;;;;;;5049540;28;20441;-77
2022/04/17 05:29:39;;;;;;;2.57;2.33;;;;;;;;;;5051799;28;20776;-76
2022/04/17 05:32:05;;;;;;;2.03;1.70;;;;;;;;;;5051065;28;20486;-76
2022/04/17 05:34:32;;;;;;;2.33;2.20;;;;;;;;;;5050256;28;20425;-76
2022/04/17 05:36:58;;;;;;;2.03;1.93;;;;;;;;;;5050011;28;20446;-78
2022/04/17 05:39:24;;;;;;;1.87;1.83;;;;;;;;;;5049027;28;20433;-77
2022/04/17 05:41:50;;;;;;;1.87;1.77;;;;;;;;;;5050841;28;20507;-77
2022/04/17 05:44:16;;;;;;;1.93;1.70;;;;;;;;;;5051663;28;20802;-77
2022/04/17 05:46:42;;;;;;;1.60;1.60;;;;;;;;;;5049822;28;20919;-76
2022/04/17 05:49:09;;;;;;;2.43;2.13;;;;;;;;;;5043466;28;20476;-77
2022/04/17 05:51:35;;;;;;;1.90;1.90;;;;;;;;;;5050991;28;20478;-77
2022/04/17 05:54:05;;;;;;;2.13;1.93;;;;;;;;;;5049670;28;20470;-77
2022/04/17 05:56:31;;;;;;;2.00;2.00;;;;;;;;;;5048262;28;20481;-77
2022/04/17 05:58:57;;;;;;;2.20;2.10;;;;;;;;;;5052029;28;20430;-77
2022/04/17 06:01:24;;;;;;;2.40;2.30;;;;;;;;;;5049099;28;20445;-76
2022/04/17 06:03:50;;;;;;;2.03;1.93;;;;;;;;;;5050586;28;20438;-75
2022/04/17 06:06:20;;;;;;;2.07;2.07;;;;;;;;;;5045545;28;20442;-76
2022/04/17 06:08:46;;;;;;;1.30;1.30;;;;;;;;;;5051626;28;20423;-75
2022/04/17 06:11:12;;;;;;;2.87;1.93;;;;;;;;;;5051670;28;21002;-75
2022/04/17 06:13:38;;;;;;;1.23;1.23;;;;;;;;;;5051489;28;20422;-75
2022/04/17 06:16:04;;;;;;;1.50;1.50;;;;;;;;;;5048245;28;20472;-75
2022/04/17 06:18:30;;;;;;;2.03;2.03;;;;;;;;;;5048547;28;20806;-77
2022/04/17 06:20:56;;;;;;;1.20;1.20;;;;;;;;;;5051198;28;20433;-75
2022/04/17 06:23:22;;;;;;;3.10;1.60;;;;;;;;;;5050994;28;20923;-76
2022/04/17 06:25:48;;;;;;;1.43;1.43;;;;;;;;;;5047079;28;20422;-74
2022/04/17 06:28:14;;;;;;;1.30;1.30;;;;;;;;;;5043666;28;20517;-75
2022/04/17 06:30:40;;;;;;;1.43;1.43;;;;;;;;;;5046118;28;21051;-75
2022/04/17 06:33:06;;;;;;;1.53;1.53;;;;;;;;;;5045946;28;20446;-76
2022/04/17 06:35:32;;;;;;;1.23;1.23;;;;;;;;;;5047372;28;20422;-76
2022/04/17 06:37:59;;;;;;;1.43;1.43;;;;;;;;;;5046042;28;20458;-76
2022/04/17 06:40:26;;;;;;;1.67;1.57;;;;;;;;;;5048502;28;20432;-80
2022/04/17 06:42:53;;;;;;;1.40;1.40;;;;;;;;;;5049569;28;20779;-76
2022/04/17 06:45:19;;;;;;;1.40;1.40;;;;;;;;;;5051135;28;20411;-75
2022/04/17 06:47:45;;;;;;;1.97;1.87;;;;;;;;;;5049874;28;20827;-75
2022/04/17 06:50:12;;;;;;;1.20;1.20;;;;;;;;;;5050776;28;20514;-75
2022/04/17 06:52:38;;;;;;;2.77;1.70;;;;;;;;;;5046240;28;20470;-75
2022/04/17 06:55:05;;;;;;;1.90;1.53;;;;;;;;;;5051039;28;20479;-75
2022/04/17 06:57:31;;;;;;;3.10;1.30;;;;;;;;;;5050047;28;20422;-75
2022/04/17 06:59:58;;;;;;;4.47;1.30;;;;;;;;;;5048622;28;21522;-75
2022/04/17 07:02:24;;;;;;;1.27;1.27;;;;;;;;;;5049973;28;20449;-76
2022/04/17 07:04:50;;;;;;;1.47;1.37;;;;;;;;;;5048588;28;20807;-75
2022/04/17 07:07:16;;;;;;;1.73;1.63;;;;;;;;;;5049213;28;21003;-75
2022/04/17 07:09:42;;;;;;;1.70;1.60;;;;;;;;;;5047478;28;20454;-77
2022/04/17 07:12:08;;;;;;;1.07;1.07;;;;;;;;;;5048116;28;20977;-75
2022/04/17 07:14:34;;;;;;;1.10;1.10;;;;;;;;;;5046859;28;20430;-76
2022/04/17 07:17:00;;;;;;;1.30;1.20;;;;;;;;;;5046066;28;20938;-75
2022/04/17 07:19:26;;;;;;;1.10;1.10;;;;;;;;;;5049682;28;20860;-76
2022/04/17 07:21:52;;;;;;;2.20;1.50;;;;;;;;;;5042039;28;20831;-76
2022/04/17 07:24:18;;;;;;;1.50;1.40;;;;;;;;;;5041996;28;20831;-75
2022/04/17 07:26:44;;;;;;;1.07;1.07;;;;;;;;;;5044468;28;20795;-75
2022/04/17 07:29:10;;;;;;;0.90;0.90;;;;;;;;;;5049457;28;20425;-76
2022/04/17 07:31:36;;;;;;;1.60;1.47;;;;;;;;;;5048029;28;20839;-75
2022/04/17 07:34:02;;;;;;;1.63;1.20;;;;;;;;;;5047035;28;20430;-76
2022/04/17 07:36:28;;;;;;;1.50;1.40;;;;;;;;;;5048415;28;21027;-76
2022/04/17 07:38:53;;;;;;;2.97;1.03;;;;;;;;;;5046124;28;20931;-77
2022/04/17 07:41:19;;;;;;;1.50;1.50;;;;;;;;;;5049129;28;20780;-76
2022/04/17 07:43:45;;;;;;;0.97;0.97;;;;;;;;;;5046126;28;20450;-77
2022/04/17 07:46:11;;;;;;;1.17;1.17;;;;;;;;;;5048943;28;20422;-77
2022/04/17 07:48:37;;;;;;;1.23;1.20;;;;;;;;;;5048979;28;20568;-76
2022/04/17 07:51:03;;;;;;;0.97;0.97;;;;;;;;;;5048503;28;20889;-76
2022/04/17 07:53:31;;;;;;;2.00;1.20;;;;;;;;;;5049924;28;20434;-76
2022/04/17 07:55:57;;;;;;;1.20;1.20;;;;;;;;;;5048228;28;20426;-77
2022/04/17 07:58:32;;;;;;;1.20;1.20;;;;;;;;;;5048558;28;20446;-76
2022/04/17 08:00:58;;;;;;;1.03;1.03;;;;;;;;;;5048065;28;20431;-76
2022/04/17 08:03:35;;;;;;;1.47;1.40;;;;;;;;;;5047121;28;20470;-76
2022/04/17 08:06:01;;;;;;;1.10;1.10;;;;;;;;;;5042390;28;20823;-75
2022/04/17 08:08:28;;;;;;;1.77;1.10;;;;;;;;;;5044841;28;20807;-75
2022/04/17 08:10:54;;;;;;;2.10;1.30;;;;;;;;;;5045338;28;20477;-75
2022/04/17 08:13:20;;;;;;;1.10;1.00;;;;;;;;;;5046006;28;20426;-76
2022/04/17 08:15:46;;;;;;;1.60;1.10;;;;;;;;;;5047015;28;20930;-75
2022/04/17 08:18:12;;;;;;;3.90;1.17;;;;;;;;;;5045580;28;20442;-76
2022/04/17 08:20:38;;;;;;;1.10;1.10;;;;;;;;;;5045780;28;20457;-76
2022/04/17 08:23:04;;;;;;;1.23;1.23;;;;;;;;;;5047542;28;20438;-75
2022/04/17 08:25:30;;;;;;;1.10;1.10;;;;;;;;;;5047101;28;20435;-76
2022/04/17 08:27:56;;;;;;;0.93;0.93;;;;;;;;;;5049008;28;20472;-75
2022/04/17 08:30:24;;;;;;;1.10;1.10;;;;;;;;;;5047751;28;20445;-76
2022/04/17 08:32:50;;;;;;;1.20;1.20;;;;;;;;;;5047186;28;20442;-75
2022/04/17 08:35:16;;;;;;;4.30;1.25;;;;;;;;;;5047824;28;20407;-69
2022/04/17 08:37:43;;;;;;;1.17;1.13;;;;;;;;;;5048662;28;20271;-71
2022/04/17 08:40:10;;;;;;;1.03;1.03;;;;;;;;;;5040270;28;20520;-71
2022/04/17 08:42:37;;;;;;;0.90;0.90;;;;;;;;;;5046818;28;20450;-71
2022/04/17 08:45:03;;;;;;;1.27;1.27;;;;;;;;;;5048310;28;20422;-70
2022/04/17 08:47:30;;;;;;;1.00;1.00;;;;;;;;;;5048553;28;20414;-75
2022/04/17 08:49:56;;;;;;;3.40;1.53;;;;;;;;;;5048196;28;20445;-75
2022/04/17 08:52:23;;;;;;;1.27;1.23;;;;;;;;;;5051150;28;20477;-79
2022/04/17 08:54:50;;;;;;;6.10;1.03;;;;;;;;;;5042223;28;20444;-76
2022/04/17 08:57:20;;;;;;;1.70;0.90;;;;;;;;;;5050362;28;20426;-76
2022/04/17 08:59:46;;;;;;;0.93;0.93;;;;;;;;;;5051384;28;20410;-77
2022/04/17 09:02:13;;;;;;;1.10;0.93;;;;;;;;;;5049003;28;20551;-77
2022/04/17 09:04:41;;;;;;;1.00;1.00;;;;;;;;;;5048240;28;21798;-76
2022/04/17 09:07:08;;;;;;;3.90;1.00;;;;;;;;;;5052281;28;20452;-74
2022/04/17 09:09:41;;;;;;;0.80;0.80;;;;;;;;;;5052697;28;20488;-77
2022/04/17 09:12:07;;;;;;;1.27;1.27;;;;;;;;;;5052800;28;20834;-75
2022/04/17 09:14:38;;;;;;;1.20;1.20;;;;;;;;;;5051371;28;20444;-76
2022/04/17 09:17:09;;;;;;;1.20;1.20;;;;;;;;;;5051931;28;20428;-77
2022/04/17 09:19:34;;;;;;;1.03;1.03;;;;;;;;;;5052160;28;20406;-76
2022/04/17 09:22:01;;;;;;;0.97;0.97;;;;;;;;;;5049825;28;20475;-74
2022/04/17 09:24:27;;;;;;;1.10;1.10;;;;;;;;;;5049371;28;20418;-75
2022/04/17 09:26:57;;;;;;;1.10;1.10;;;;;;;;;;5048191;28;20445;-75
2022/04/17 09:29:28;;;;;;;6.33;1.47;;;;;;;;;;5048031;28;20471;-71
2022/04/17 09:32:04;;;;;;;4.10;1.10;;;;;;;;;;5051795;28;20762;-77
2022/04/17 09:34:52;;;;;;;2.10;0.90;;;;;;;;;;5050846;28;20417;-75
2022/04/17 09:37:22;;;;;;;1.10;1.10;;;;;;;;;;5051853;28;20429;-76
2022/04/17 09:39:49;;;;;;;0.97;0.97;;;;;;;;;;5051584;28;20992;-77
2022/04/17 09:42:23;;;;;;;1.17;1.17;;;;;;;;;;5050914;28;20419;-74
2022/04/17 09:44:54;;;;;;;1.50;1.30;;;;;;;;;;5052378;28;20445;-75
2022/04/17 09:47:21;;;;;;;2.57;1.60;;;;;;;;;;5050525;28;20419;-75
2022/04/17 09:49:50;;;;;;;15.40;1.30;;;;;;;;;;5050803;28;20446;-75
2022/04/17 09:52:16;;;;;;;1.30;1.30;;;;;;;;;;5045658;28;21011;-75
2022/04/17 09:54:42;;;;;;;1.17;1.00;;;;;;;;;;5049797;28;20933;-76
2022/04/17 09:57:09;;;;;;;0.93;0.80;;;;;;;;;;5051330;28;20471;-76
2022/04/17 09:59:36;;;;;;;1.60;1.40;;;;;;;;;;5051966;28;20515;-76
2022/04/17 10:02:02;;;;;;;1.20;1.20;;;;;;;;;;5049132;28;20439;-75
2022/04/17 10:04:28;;;;;;;0.67;0.67;;;;;;;;;;5050539;28;20425;-76
2022/04/17 10:07:04;;;;;;;1.20;1.20;;;;;;;;;;5051139;28;20414;-76
2022/04/17 10:09:30;;;;;;;4.53;1.30;;;;;;;;;;5051136;28;20433;-78
2022/04/17 10:12:02;;;;;;;1.07;1.07;;;;;;;;;;5050134;28;21079;-75
2022/04/17 10:14:31;;;;;;;1.43;1.43;;;;;;;;;;5050663;28;20419;-76
2022/04/17 10:16:58;;;;;;;1.07;1.07;;;;;;;;;;5048194;28;20507;-77
2022/04/17 10:19:25;;;;;;;3.30;0.97;;;;;;;;;;5049998;28;21075;-77
2022/04/17 10:21:51;;;;;;;1.10;1.10;;;;;;;;;;5046250;28;20807;-76
2022/04/17 10:24:21;;;;;;;1.07;1.07;;;;;;;;;;5048459;28;20946;-75
2022/04/17 10:26:51;;;;;;;0.63;0.60;;;;;;;;;;5049503;28;20414;-74
2022/04/17 10:29:17;;;;;;;0.80;0.80;;;;;;;;;;5050531;28;20465;-76
2022/04/17 10:31:49;;;;;;;1.17;1.07;;;;;;;;;;5047181;28;20977;-75
2022/04/17 10:34:27;;;;;;;1.00;1.00;;;;;;;;;;5050969;28;20415;-75
2022/04/17 10:37:12;;;;;;;1.43;0.80;;;;;;;;;;5048624;28;20872;-76
2022/04/17 10:39:47;;;;;;;1.00;1.00;;;;;;;;;;5050620;28;20437;-75
2022/04/17 10:42:13;;;;;;;1.60;1.13;;;;;;;;;;5045316;28;20438;-75
2022/04/17 10:44:42;;;;;;;6.53;1.20;;;;;;;;;;5062024;28;20525;-75
2022/04/17 10:47:20;;;;;;;1.10;1.10;;;;;;;;;;5045933;28;20430;-76
2022/04/17 10:49:54;;;;;;;0.70;0.70;;;;;;;;;;5049006;28;20473;-75
2022/04/17 10:52:32;;;;;;;0.90;0.90;;;;;;;;;;5045374;28;20538;-76
2022/04/17 10:55:08;;;;;;;1.07;1.07;;;;;;;;;;5047781;28;20450;-76
2022/04/17 10:57:47;;;;;;;0.90;0.90;;;;;;;;;;5044179;28;20788;-74
2022/04/17 11:00:26;;;;;;;1.73;0.93;;;;;;;;;;5050500;28;20419;-75
2022/04/17 11:02:53;;;;;;;1.00;0.80;;;;;;;;;;5047847;28;20469;-76
2022/04/17 11:06:08;;;;;;;0.83;0.70;;;;;;;;;;5050516;28;20423;-77
2022/04/17 11:08:24;;;;;;;1.00;1.00;;;;;;;;;;5050540;28;20529;-74
2022/04/17 11:10:53;;;;;;;1.93;1.10;;;;;;;;;;5050551;28;20505;-76
2022/04/17 11:13:19;;;;;;;1.07;1.07;;;;;;;;;;5047273;28;20473;-75
2022/04/17 11:15:53;;;;;;;1.13;1.13;;;;;;;;;;5049936;28;20501;-75
2022/04/17 11:18:23;;;;;;;0.90;0.80;;;;;;;;;;5048090;28;20449;-76
2022/04/17 11:20:53;;;;;;;0.87;0.87;;;;;;;;;;5047842;28;20489;-77
2022/04/17 11:23:38;;;;;;;0.93;0.93;;;;;;;;;;5045911;28;20533;-76
2022/04/17 11:26:03;;;;;;;0.73;0.73;;;;;;;;;;5049202;28;20426;-76
2022/04/17 11:28:33;;;;;;;1.80;1.03;;;;;;;;;;5049497;28;20434;-75
2022/04/17 11:30:59;;;;;;;0.90;0.90;;;;;;;;;;5046680;28;20474;-75
2022/04/17 11:33:25;;;;;;;2.20;0.90;;;;;;;;;;5048070;28;20548;-76
2022/04/17 11:35:52;;;;;;;0.83;0.83;;;;;;;;;;5048063;28;20414;-77
2022/04/17 11:38:17;;;;;;;1.43;1.20;;;;;;;;;;5041055;28;20451;-74
2022/04/17 11:40:44;;;;;;;0.70;0.70;;;;;;;;;;5040510;28;20461;-74
2022/04/17 11:43:15;;;;;;;0.80;0.80;;;;;;;;;;5041397;28;20938;-74
2022/04/17 11:45:42;;;;;;;0.73;0.73;;;;;;;;;;5046839;28;20446;-70
2022/04/17 11:48:09;;;;;;;8.77;1.10;;;;;;;;;;5048928;28;20881;-74
2022/04/17 11:50:36;;;;;;;1.53;1.03;;;;;;;;;;5045633;28;20438;-76
2022/04/17 11:53:04;;;;;;;0.80;0.80;;;;;;;;;;5046112;28;20542;-74
2022/04/17 11:55:32;;;;;;;0.73;0.73;;;;;;;;;;5046663;28;20436;-76
2022/04/17 11:57:59;;;;;;;1.50;1.13;;;;;;;;;;5045717;28;20441;-75
2022/04/17 12:00:26;;;;;;;3.33;0.97;;;;;;;;;;5046645;28;20525;-75
2022/04/17 12:02:59;;;;;;;1.40;1.00;;;;;;;;;;5043556;28;20446;-74
2022/04/17 12:05:26;;;;;;;1.40;1.40;;;;;;;;;;5044260;28;20481;-69
2022/04/17 12:07:58;;;;;;;1.80;0.93;;;;;;;;;;5046023;28;20513;-76
2022/04/17 12:10:24;;;;;;;0.87;0.87;;;;;;;;;;5043956;28;21019;-75
2022/04/17 12:12:51;;;;;;;2.10;1.87;;;;;;;;;;5048059;28;20486;-75
2022/04/17 12:15:17;;;;;;;1.07;1.07;;;;;;;;;;5049032;28;20509;-74
2022/04/17 12:17:43;;;;;;;1.17;1.17;;;;;;;;;;5047092;28;20434;-74
2022/04/17 12:20:10;;;;;;;0.90;0.90;;;;;;;;;;5048281;28;20438;-73
2022/04/17 12:22:36;;;;;;;1.20;1.20;;;;;;;;;;5044956;28;20442;-74
2022/04/17 12:25:04;;;;;;;0.80;0.80;;;;;;;;;;5045882;28;20454;-75
2022/04/17 12:27:30;;;;;;;5.07;1.40;;;;;;;;;;5046894;28;20426;-78
2022/04/17 12:29:57;;;;;;;1.27;1.27;;;;;;;;;;5043274;28;20449;-74
2022/04/17 12:32:24;;;;;;;0.90;0.87;;;;;;;;;;5048566;28;20474;-74
2022/04/17 12:35:00;;;;;;;2.90;0.83;;;;;;;;;;5041153;28;20524;-74
2022/04/17 12:37:28;;;;;;;3.03;0.93;;;;;;;;;;5041806;28;20980;-75
2022/04/17 12:40:06;;;;;;;0.60;0.60;;;;;;;;;;5044666;28;20468;-75
2022/04/17 12:42:32;;;;;;;1.43;1.07;;;;;;;;;;5049570;28;20429;-75
2022/04/17 12:44:58;;;;;;;1.50;1.13;;;;;;;;;;5041549;28;20823;-75
2022/04/17 12:47:24;;;;;;;0.80;0.80;;;;;;;;;;5044173;28;20433;-74
2022/04/17 12:49:57;;;;;;;0.80;0.80;;;;;;;;;;5047174;28;20779;-75
2022/04/17 12:52:24;;;;;;;1.00;1.00;;;;;;;;;;5045959;28;20565;-75
2022/04/17 12:54:50;;;;;;;4.27;1.00;;;;;;;;;;5046289;28;20939;-74
2022/04/17 12:57:20;;;;;;;1.10;1.10;;;;;;;;;;5046868;28;20450;-74
2022/04/17 12:59:50;;;;;;;0.90;0.90;;;;;;;;;;5048665;28;20414;-74
2022/04/17 13:02:17;;;;;;;0.70;0.70;;;;;;;;;;5044829;28;20431;-74
2022/04/17 13:04:44;;;;;;;0.93;0.93;;;;;;;;;;5042977;28;20445;-74
2022/04/17 13:07:17;;;;;;;0.80;0.80;;;;;;;;;;5048032;28;20787;-74
2022/04/17 13:09:52;;;;;;;0.67;0.67;;;;;;;;;;5048777;28;20933;-76
2022/04/17 13:12:46;;;;;;;0.47;0.47;;;;;;;;;;5038528;28;20576;-73
2022/04/17 13:15:13;;;;;;;0.80;0.80;;;;;;;;;;5047181;28;20442;-75
2022/04/17 13:17:46;;;;;;;0.80;0.80;;;;;;;;;;5043247;28;20420;-78
2022/04/17 13:20:12;;;;;;;0.60;0.60;;;;;;;;;;5045629;28;20481;-77
2022/04/17 13:22:39;;;;;;;1.13;0.83;;;;;;;;;;5038821;28;20935;-78
2022/04/17 13:25:06;;;;;;;0.60;0.60;;;;;;;;;;5042659;28;20436;-74
2022/04/17 13:27:32;;;;;;;0.70;0.70;;;;;;;;;;5038958;28;20866;-75
2022/04/17 13:29:58;;;;;;;0.97;0.70;;;;;;;;;;5044762;28;20463;-73
2022/04/17 13:32:24;;;;;;;0.80;0.80;;;;;;;;;;5046807;28;20477;-75
2022/04/17 13:34:50;;;;;;;0.70;0.70;;;;;;;;;;5043639;28;20943;-74
2022/04/17 13:40:03;;;;;;;0.77;0.77;;;;;;;;;;5035161;28;20488;-76
2022/04/17 13:42:29;;;;;;;2.03;0.70;;;;;;;;;;5049171;28;20438;-76
2022/04/17 13:44:56;;;;;;;0.77;0.60;;;;;;;;;;5046828;28;20521;-75
2022/04/17 13:47:22;;;;;;;0.60;0.53;;;;;;;;;;5049970;28;20430;-76
2022/04/17 13:49:48;;;;;;;0.60;0.60;;;;;;;;;;5050904;28;20430;-74
2022/04/17 13:52:14;;;;;;;0.80;0.80;;;;;;;;;;5045955;28;20581;-73
2022/04/17 13:54:40;;;;;;;0.70;0.70;;;;;;;;;;5047626;28;20430;-72
2022/04/17 13:57:06;;;;;;;0.80;0.80;;;;;;;;;;5049297;28;20522;-73
2022/04/17 13:59:32;;;;;;;4.13;0.70;;;;;;;;;;5048181;28;20438;-74
2022/04/17 14:01:58;;;;;;;0.80;0.80;;;;;;;;;;5043164;28;20470;-74
2022/04/17 14:04:24;;;;;;;1.30;1.20;;;;;;;;;;5045939;28;20440;-74
2022/04/17 14:06:51;;;;;;;1.23;1.23;;;;;;;;;;5046359;28;20529;-74
2022/04/17 14:09:16;;;;;;;0.83;0.83;;;;;;;;;;5047123;28;20430;-74
2022/04/17 14:11:44;;;;;;;0.70;0.70;;;;;;;;;;5043092;28;20479;-74
2022/04/17 14:14:10;;;;;;;1.30;0.80;;;;;;;;;;5052077;28;20457;-74
2022/04/17 14:16:36;;;;;;;0.50;0.50;;;;;;;;;;5047508;28;20442;-74
2022/04/17 14:19:02;;;;;;;0.60;0.60;;;;;;;;;;5044701;28;20454;-74
2022/04/17 14:21:28;;;;;;;0.40;0.40;;;;;;;;;;5044099;28;20950;-74
2022/04/17 14:23:54;;;;;;;0.60;0.60;;;;;;;;;;5043179;28;20447;-74
2022/04/17 14:26:21;;;;;;;1.80;0.93;;;;;;;;;;5046862;28;20458;-74
2022/04/17 14:28:47;;;;;;;1.00;1.00;;;;;;;;;;5044424;28;20568;-75
2022/04/17 14:31:13;;;;;;;0.60;0.60;;;;;;;;;;5046852;28;20974;-75
2022/04/17 14:33:39;;;;;;;0.43;0.43;;;;;;;;;;5045880;28;20434;-74
2022/04/17 14:36:05;;;;;;;0.70;0.70;;;;;;;;;;5046170;28;20442;-74
2022/04/17 14:38:31;;;;;;;0.60;0.60;;;;;;;;;;5046391;28;20431;-75
2022/04/17 14:40:57;;;;;;;1.03;1.03;;;;;;;;;;5051274;28;20467;-74
2022/04/17 14:43:23;;;;;;;0.60;0.60;;;;;;;;;;5046783;28;20784;-74
2022/04/17 14:45:50;;;;;;;0.90;0.90;;;;;;;;;;5047986;28;20419;-74
2022/04/17 14:48:16;;;;;;;2.73;0.70;;;;;;;;;;5041932;28;20472;-74
2022/04/17 14:50:42;;;;;;;0.53;0.53;;;;;;;;;;5042486;28;20500;-74
2022/04/17 14:53:08;;;;;;;0.90;0.90;;;;;;;;;;5060312;28;20974;-74
2022/04/17 14:55:34;;;;;;;0.60;0.60;;;;;;;;;;5048618;28;20430;-75
2022/04/17 14:58:00;;;;;;;0.87;0.80;;;;;;;;;;5017066;28;22191;-74
2022/04/17 15:00:26;;;;;;;0.57;0.57;;;;;;;;;;5038374;28;20438;-74
2022/04/17 15:02:53;;;;;;;0.60;0.60;;;;;;;;;;5045536;28;20450;-74